Time;durP1;ratioP1;P1;durP2;ratioP2;P2;SDS_P1;SDS_P2;PMS_P1;PMS_P2;Temp;Humidity;BMP_temperature;BMP_pressure;BME280_temperature;BME280_humidity;BME280_pressure;Samples;Min_cycle;Max_cycle;Signal;HPM_P1;HPM_P2
2023/12/08 00:00:57;;;;;;;8.10;5.17;;;;;;;1.67;66.52;94865.41;4972008;28;20240;-77
2023/12/08 00:03:22;;;;;;;6.43;4.27;;;;;;;1.69;66.03;94853.34;4974326;28;20713;-78
2023/12/08 00:05:47;;;;;;;5.40;4.03;;;;;;;1.80;65.82;94841.50;4993227;28;20188;-78
2023/12/08 00:08:13;;;;;;;5.57;4.20;;;;;;;1.79;65.57;94833.00;4962378;28;20194;-78
2023/12/08 00:10:38;;;;;;;5.87;4.80;;;;;;;1.85;65.35;94835.09;4974367;28;20220;-78
2023/12/08 00:13:06;;;;;;;6.60;4.70;;;;;;;1.88;65.79;94832.31;4975869;28;20199;-78
2023/12/08 00:15:32;;;;;;;5.83;4.53;;;;;;;1.78;66.00;94830.56;4972739;28;20218;-78
2023/12/08 00:17:57;;;;;;;6.03;4.57;;;;;;;1.68;66.06;94830.41;4983184;28;20187;-78
2023/12/08 00:20:23;;;;;;;6.47;4.53;;;;;;;1.80;65.65;94810.78;4960553;28;20192;-77
2023/12/08 00:22:48;;;;;;;5.50;4.47;;;;;;;1.83;65.81;94813.91;4975327;28;20231;-78
2023/12/08 00:25:15;;;;;;;4.60;4.10;;;;;;;1.80;65.50;94819.28;4987096;28;20246;-78
2023/12/08 00:27:40;;;;;;;4.80;3.93;;;;;;;1.83;65.51;94820.78;4992565;28;20188;-78
2023/12/08 00:30:06;;;;;;;4.90;3.90;;;;;;;1.80;65.54;94826.94;4982696;28;20631;-78
2023/12/08 00:32:31;;;;;;;6.20;4.27;;;;;;;1.72;65.80;94818.19;4993105;28;20660;-78
2023/12/08 00:34:56;;;;;;;6.30;4.00;;;;;;;1.75;65.63;94813.66;4978322;28;20242;-78
2023/12/08 00:37:22;;;;;;;4.27;3.67;;;;;;;1.86;65.27;94807.78;4956476;28;20192;-78
2023/12/08 00:39:47;;;;;;;7.80;4.10;;;;;;;1.87;65.35;94799.16;4975516;28;20566;-78
2023/12/08 00:42:12;;;;;;;4.23;3.60;;;;;;;1.88;64.63;94800.78;4980936;28;20223;-78
2023/12/08 00:44:38;;;;;;;4.70;3.97;;;;;;;1.74;64.47;94806.91;4974625;28;20211;-78
2023/12/08 00:47:04;;;;;;;3.97;3.40;;;;;;;1.94;64.32;94797.75;4954212;28;20278;-78
2023/12/08 00:49:29;;;;;;;4.43;3.80;;;;;;;1.99;64.25;94786.25;4975949;28;20225;-78
2023/12/08 00:51:55;;;;;;;4.10;3.63;;;;;;;1.95;64.59;94792.53;4975045;28;20258;-78
2023/12/08 00:54:21;;;;;;;5.17;4.10;;;;;;;1.90;64.54;94779.25;4993547;28;20216;-78
2023/12/08 00:56:47;;;;;;;5.33;3.97;;;;;;;1.92;64.16;94779.94;4991577;28;20261;-77
2023/12/08 00:59:12;;;;;;;5.53;3.83;;;;;;;1.92;63.64;94774.81;4975505;28;20186;-78
2023/12/08 01:01:38;;;;;;;3.90;3.50;;;;;;;2.01;63.45;94764.84;4975665;28;20608;-78
2023/12/08 01:04:03;;;;;;;4.80;3.60;;;;;;;2.08;63.25;94777.06;4983543;28;20224;-78
2023/12/08 01:06:29;;;;;;;5.77;3.57;;;;;;;1.97;63.84;94787.31;4992553;28;20184;-78
2023/12/08 01:08:54;;;;;;;4.87;3.37;;;;;;;1.93;63.81;94789.25;4975696;28;20609;-78
2023/12/08 01:11:19;;;;;;;4.67;3.53;;;;;;;2.15;62.85;94788.50;4978359;28;20199;-78
2023/12/08 01:13:45;;;;;;;3.90;3.07;;;;;;;2.16;63.37;94786.75;4992353;28;20759;-78
2023/12/08 01:16:10;;;;;;;4.67;3.63;;;;;;;2.26;63.12;94782.56;4974840;28;20211;-78
2023/12/08 01:18:36;;;;;;;4.17;3.20;;;;;;;2.13;63.35;94786.97;4967487;28;20246;-78
2023/12/08 01:21:01;;;;;;;5.43;3.80;;;;;;;2.11;64.03;94789.63;4975620;28;20283;-78
2023/12/08 01:23:26;;;;;;;5.30;3.30;;;;;;;2.13;63.97;94787.78;4979997;28;20688;-78
2023/12/08 01:25:52;;;;;;;4.03;3.60;;;;;;;2.08;64.27;94792.44;4986265;28;20184;-78
2023/12/08 01:28:17;;;;;;;4.40;3.87;;;;;;;2.03;65.27;94784.25;4967196;28;20286;-78
2023/12/08 01:30:42;;;;;;;4.83;3.70;;;;;;;2.29;64.97;94782.31;4974248;28;20195;-78
2023/12/08 01:33:08;;;;;;;7.17;3.60;;;;;;;2.25;64.77;94784.31;4988837;28;20199;-78
2023/12/08 01:35:33;;;;;;;4.23;3.50;;;;;;;2.24;65.05;94786.97;4973578;28;20207;-79
2023/12/08 01:37:58;;;;;;;4.60;3.77;;;;;;;2.18;65.31;94782.31;4973499;28;20192;-77
2023/12/08 01:40:24;;;;;;;4.80;3.57;;;;;;;2.14;65.33;94783.47;4966056;28;20207;-78
2023/12/08 01:42:49;;;;;;;4.70;4.10;;;;;;;2.27;65.65;94779.06;4973778;28;20211;-78
2023/12/08 01:45:14;;;;;;;5.33;3.77;;;;;;;2.29;65.67;94769.50;4988659;28;20216;-78
2023/12/08 01:47:41;;;;;;;5.47;3.90;;;;;;;2.32;65.73;94771.84;4976298;28;20219;-78
2023/12/08 01:50:07;;;;;;;5.33;3.80;;;;;;;2.30;66.11;94770.31;4956979;28;20283;-78
2023/12/08 01:52:32;;;;;;;4.97;4.23;;;;;;;2.31;65.92;94775.34;4975024;28;20678;-78
2023/12/08 01:54:59;;;;;;;4.93;4.10;;;;;;;2.36;65.64;94772.41;4974864;28;20242;-78
2023/12/08 01:57:24;;;;;;;5.67;4.77;;;;;;;2.44;66.12;94780.34;4992534;28;20216;-78
2023/12/08 01:59:50;;;;;;;4.70;4.20;;;;;;;2.33;66.50;94777.78;4986659;28;20256;-78
2023/12/08 02:02:16;;;;;;;5.50;4.50;;;;;;;2.50;65.87;94770.44;4965834;28;20200;-78
2023/12/08 02:04:43;;;;;;;6.30;4.23;;;;;;;2.47;65.87;94765.56;4975271;28;20230;-78
2023/12/08 02:07:09;;;;;;;5.57;4.43;;;;;;;2.40;66.08;94766.97;4971003;28;20654;-78
2023/12/08 02:09:34;;;;;;;6.67;4.00;;;;;;;2.35;65.98;94771.59;4979645;28;20231;-78
2023/12/08 02:12:00;;;;;;;6.97;4.33;;;;;;;2.50;65.90;94765.31;4977603;28;20567;-78
2023/12/08 02:14:26;;;;;;;6.37;4.50;;;;;;;2.47;65.49;94765.56;4977140;28;20255;-78
2023/12/08 02:16:54;;;;;;;6.00;5.03;;;;;;;2.53;65.98;94775.31;4978673;28;20223;-78
2023/12/08 02:19:20;;;;;;;5.57;4.60;;;;;;;2.69;65.17;94777.53;4989305;28;20223;-78
2023/12/08 02:21:45;;;;;;;7.87;4.80;;;;;;;2.43;65.67;94784.66;4979826;28;20267;-78
2023/12/08 02:24:11;;;;;;;6.63;4.40;;;;;;;2.33;66.15;94788.03;4987199;28;20222;-78
2023/12/08 02:26:36;;;;;;;8.03;4.83;;;;;;;2.40;66.33;94792.59;4986828;28;20594;-78
2023/12/08 02:29:02;;;;;;;7.87;4.50;;;;;;;2.29;66.57;94792.56;4963097;28;20192;-78
2023/12/08 02:31:31;;;;;;;6.20;4.63;;;;;;;2.65;66.06;94793.25;4978460;28;20316;-79
2023/12/08 02:33:57;;;;;;;7.17;5.20;;;;;;;2.66;66.49;94800.03;4984366;28;20210;-78
2023/12/08 02:36:23;;;;;;;6.33;4.93;;;;;;;2.74;65.73;94800.22;4978392;28;20211;-78
2023/12/08 02:38:50;;;;;;;4.07;3.67;;;;;;;2.73;64.51;94799.41;4961851;28;20670;-78
2023/12/08 02:41:16;;;;;;;4.37;3.47;;;;;;;2.80;63.53;94795.44;4962067;28;20262;-78
2023/12/08 02:43:41;;;;;;;5.67;3.67;;;;;;;2.89;63.28;94798.25;4977607;28;20219;-78
2023/12/08 02:46:06;;;;;;;4.63;3.77;;;;;;;2.86;63.86;94801.88;4996028;28;20188;-78
2023/12/08 02:48:32;;;;;;;4.67;3.40;;;;;;;2.76;64.52;94801.75;4986536;28;20215;-78
2023/12/08 02:50:57;;;;;;;5.00;4.10;;;;;;;2.76;65.08;94794.06;4988059;28;20214;-78
2023/12/08 02:53:22;;;;;;;4.40;3.50;;;;;;;2.73;65.36;94790.91;4977947;28;20647;-79
2023/12/08 02:55:48;;;;;;;4.67;3.57;;;;;;;2.62;66.32;94773.00;4978263;28;20223;-78
2023/12/08 02:58:13;;;;;;;5.57;4.30;;;;;;;2.66;66.73;94772.66;4967470;28;20191;-78
2023/12/08 03:00:38;;;;;;;5.07;3.87;;;;;;;2.59;67.17;94763.78;4995991;28;20191;-79
2023/12/08 03:03:04;;;;;;;5.13;3.80;;;;;;;2.60;67.06;94762.84;4985136;28;20278;-78
2023/12/08 03:05:29;;;;;;;4.50;4.00;;;;;;;2.61;67.48;94750.84;4995811;28;20199;-78
2023/12/08 03:07:54;;;;;;;6.57;4.60;;;;;;;2.61;66.84;94751.66;4977648;28;20191;-78
2023/12/08 03:10:20;;;;;;;5.33;4.33;;;;;;;2.66;67.11;94738.50;4995531;28;20202;-78
2023/12/08 03:12:45;;;;;;;7.57;5.17;;;;;;;2.58;66.42;94730.59;4979986;28;20195;-78
2023/12/08 03:15:10;;;;;;;8.47;4.47;;;;;;;2.61;66.73;94761.09;4976081;28;20295;-78
2023/12/08 03:17:36;;;;;;;4.50;3.67;;;;;;;2.59;67.49;94770.66;4982121;28;20326;-78
2023/12/08 03:20:01;;;;;;;4.90;3.77;;;;;;;2.52;67.99;94778.00;4978878;28;20681;-79
2023/12/08 03:22:26;;;;;;;3.93;3.40;;;;;;;2.38;68.22;94763.66;4964227;28;20204;-78
2023/12/08 03:24:52;;;;;;;4.03;3.60;;;;;;;2.50;67.70;94765.31;4985879;28;20208;-78
2023/12/08 03:27:17;;;;;;;4.17;3.67;;;;;;;2.55;67.21;94768.31;4994677;28;20203;-78
2023/12/08 03:29:43;;;;;;;4.83;3.73;;;;;;;2.53;67.55;94749.69;4993504;28;20188;-78
2023/12/08 03:32:08;;;;;;;4.87;3.77;;;;;;;2.57;68.16;94745.16;4994629;28;20905;-78
2023/12/08 03:34:34;;;;;;;6.93;4.13;;;;;;;2.32;69.05;94725.72;4978333;28;20214;-78
2023/12/08 03:36:59;;;;;;;5.53;4.50;;;;;;;2.47;68.38;94728.84;4976131;28;20215;-78
2023/12/08 03:39:25;;;;;;;6.50;4.10;;;;;;;2.41;69.47;94742.97;4994350;28;20211;-78
2023/12/08 03:41:50;;;;;;;4.70;4.23;;;;;;;2.35;70.05;94745.16;4994507;28;20267;-78
2023/12/08 03:44:16;;;;;;;6.73;4.93;;;;;;;2.36;69.47;94746.78;4960468;28;20242;-78
2023/12/08 03:46:42;;;;;;;6.27;4.20;;;;;;;2.27;70.11;94761.94;4960564;28;20299;-78
2023/12/08 03:49:07;;;;;;;6.50;5.20;;;;;;;2.25;70.25;94761.25;4965822;28;20355;-78
2023/12/08 03:51:33;;;;;;;6.67;4.83;;;;;;;2.16;70.54;94769.63;4977164;28;20278;-78
2023/12/08 03:53:58;;;;;;;6.37;4.77;;;;;;;2.32;70.40;94771.84;4976923;28;20208;-78
2023/12/08 03:56:23;;;;;;;7.63;4.67;;;;;;;2.16;70.92;94768.81;4977075;28;20295;-79
2023/12/08 03:58:49;;;;;;;7.33;5.17;;;;;;;2.22;71.20;94770.91;4990177;28;20203;-77
2023/12/08 04:01:18;;;;;;;7.23;5.07;;;;;;;2.27;70.54;94774.75;4976961;28;20191;-78
2023/12/08 04:03:43;;;;;;;6.80;5.47;;;;;;;2.32;70.81;94776.16;4975952;28;20208;-78
2023/12/08 04:06:09;;;;;;;6.73;5.37;;;;;;;2.34;70.62;94787.91;4981130;28;20250;-78
2023/12/08 04:08:34;;;;;;;6.50;5.13;;;;;;;2.28;70.74;94776.38;4975498;28;20677;-79
2023/12/08 04:10:59;;;;;;;7.10;5.17;;;;;;;2.46;69.95;94766.47;4985262;28;20278;-78
2023/12/08 04:13:25;;;;;;;9.80;6.93;;;;;;;2.54;70.24;94760.75;4976203;28;20235;-78
2023/12/08 04:15:50;;;;;;;7.63;5.87;;;;;;;2.41;71.05;94771.16;4976591;28;20712;-78
2023/12/08 04:18:15;;;;;;;7.53;5.17;;;;;;;2.27;71.96;94766.25;4990290;28;20642;-78
2023/12/08 04:20:41;;;;;;;7.80;5.83;;;;;;;2.40;71.32;94761.03;4959938;28;20187;-78
2023/12/08 04:23:06;;;;;;;7.60;5.70;;;;;;;2.44;71.25;94750.41;4959313;28;20199;-78
2023/12/08 04:25:32;;;;;;;10.43;5.67;;;;;;;2.44;71.26;94765.78;4976516;28;20219;-78
2023/12/08 04:27:57;;;;;;;6.63;5.10;;;;;;;2.50;71.48;94755.06;4993067;28;20183;-78
2023/12/08 04:30:22;;;;;;;9.80;6.60;;;;;;;2.58;71.31;94748.53;4974802;28;20282;-78
2023/12/08 04:32:51;;;;;;;17.40;10.73;;;;;;;2.48;71.41;94756.94;4988639;28;20197;-78
2023/12/08 04:35:16;;;;;;;11.57;7.00;;;;;;;2.52;71.25;94757.50;4973149;28;20208;-78
2023/12/08 04:37:41;;;;;;;9.20;6.10;;;;;;;2.62;71.19;94765.28;4993090;28;20662;-78
2023/12/08 04:40:07;;;;;;;8.23;6.27;;;;;;;2.51;71.68;94766.94;4993444;28;20610;-78
2023/12/08 04:42:34;;;;;;;6.97;5.60;;;;;;;2.57;71.72;94770.78;4993369;28;20187;-78
2023/12/08 04:44:59;;;;;;;6.90;4.63;;;;;;;2.63;72.64;94764.34;4964853;28;21036;-78
2023/12/08 04:47:29;;;;;;;6.73;4.53;;;;;;;2.63;73.30;94746.41;4991492;28;20191;-78
2023/12/08 04:49:55;;;;;;;6.17;4.13;;;;;;;2.64;73.85;94728.34;4986289;28;20188;-78
2023/12/08 04:52:20;;;;;;;6.57;5.20;;;;;;;2.76;74.61;94731.72;4973958;28;20188;-79
2023/12/08 04:54:46;;;;;;;6.37;4.67;;;;;;;2.71;76.46;94721.00;4975869;28;20199;-79
2023/12/08 04:57:11;;;;;;;5.70;4.53;;;;;;;2.87;75.53;94716.31;4993948;28;20212;-80
2023/12/08 04:59:38;;;;;;;6.43;4.00;;;;;;;2.80;77.63;94721.09;4970860;28;20271;-79
2023/12/08 05:02:04;;;;;;;6.00;4.53;;;;;;;2.82;79.52;94710.72;4976152;28;20180;-79
2023/12/08 05:04:29;;;;;;;5.43;3.73;;;;;;;2.91;80.69;94704.03;4976942;28;20265;-79
2023/12/08 05:06:55;;;;;;;6.03;4.47;;;;;;;2.93;81.13;94715.81;4958297;28;20255;-79
2023/12/08 05:09:20;;;;;;;6.07;4.90;;;;;;;2.96;80.84;94718.13;4994104;28;20579;-79
2023/12/08 05:11:46;;;;;;;6.37;4.77;;;;;;;2.93;81.83;94722.72;4976766;28;20718;-78
2023/12/08 05:14:11;;;;;;;5.03;4.23;;;;;;;2.79;82.67;94716.91;4984126;28;20207;-79
2023/12/08 05:16:36;;;;;;;6.10;4.70;;;;;;;2.81;83.75;94717.59;4960626;28;20275;-79
2023/12/08 05:19:02;;;;;;;8.33;4.63;;;;;;;2.90;84.39;94720.38;4976296;28;20558;-78
2023/12/08 05:21:27;;;;;;;8.60;5.60;;;;;;;2.89;84.12;94714.44;4992444;28;20528;-79
2023/12/08 05:23:52;;;;;;;6.40;4.57;;;;;;;2.90;85.72;94720.38;4990086;28;20220;-79
2023/12/08 05:26:18;;;;;;;6.93;4.70;;;;;;;2.94;85.85;94717.44;4976995;28;20196;-79
2023/12/08 05:28:43;;;;;;;6.37;4.50;;;;;;;2.91;86.25;94712.53;4976665;28;20212;-79
2023/12/08 05:31:09;;;;;;;7.43;4.73;;;;;;;3.02;86.62;94722.78;4975846;28;21744;-79
2023/12/08 05:33:34;;;;;;;5.50;4.03;;;;;;;3.13;86.44;94725.31;4994722;28;20209;-78
2023/12/08 05:36:00;;;;;;;6.67;4.30;;;;;;;3.09;86.91;94729.06;4973445;28;20202;-79
2023/12/08 05:38:25;;;;;;;6.50;4.73;;;;;;;3.10;86.87;94723.00;4976664;28;20199;-78
2023/12/08 05:40:50;;;;;;;7.47;4.13;;;;;;;3.04;87.32;94728.59;4977849;28;20189;-78
2023/12/08 05:43:16;;;;;;;7.70;4.70;;;;;;;2.95;88.51;94728.53;4979853;28;20183;-78
2023/12/08 05:45:42;;;;;;;7.63;4.30;;;;;;;3.23;87.33;94732.25;4980655;28;20602;-78
2023/12/08 05:48:07;;;;;;;6.40;4.67;;;;;;;3.10;88.31;94733.25;4962479;28;20266;-78
2023/12/08 05:50:32;;;;;;;5.40;3.70;;;;;;;3.11;88.48;94734.06;4987332;28;20752;-79
2023/12/08 05:52:58;;;;;;;4.73;4.07;;;;;;;3.07;89.24;94732.66;4978474;28;20195;-78
2023/12/08 05:55:23;;;;;;;7.73;3.97;;;;;;;3.20;88.86;94740.22;4979805;28;20204;-78
2023/12/08 05:57:48;;;;;;;5.43;4.03;;;;;;;3.21;88.22;94739.28;4978727;28;20246;-79
2023/12/08 06:00:18;;;;;;;6.50;4.27;;;;;;;3.28;88.85;94743.00;4983925;28;20199;-78
2023/12/08 06:02:44;;;;;;;5.33;4.00;;;;;;;3.17;89.56;94732.75;4992074;28;20176;-79
2023/12/08 06:05:11;;;;;;;6.07;3.80;;;;;;;3.36;88.42;94738.06;4995381;28;20199;-77
2023/12/08 06:07:37;;;;;;;5.40;4.10;;;;;;;3.44;87.63;94735.66;4980403;28;20180;-78
2023/12/08 06:10:03;;;;;;;5.40;4.13;;;;;;;3.35;88.08;94739.78;4977706;28;20194;-81
2023/12/08 06:12:28;;;;;;;5.70;3.73;;;;;;;3.35;88.67;94742.34;4995523;28;20179;-80
2023/12/08 06:14:54;;;;;;;5.93;3.70;;;;;;;3.44;88.50;94737.41;4978094;28;20258;-78
2023/12/08 06:17:20;;;;;;;8.43;3.80;;;;;;;3.33;87.95;94740.84;4975208;28;20235;-80
2023/12/08 06:19:45;;;;;;;5.40;4.37;;;;;;;3.36;88.22;94744.00;4977587;28;20262;-77
2023/12/08 06:22:10;;;;;;;4.73;3.73;;;;;;;3.27;88.19;94746.47;4981255;28;20700;-79
2023/12/08 06:24:36;;;;;;;4.57;3.80;;;;;;;3.29;88.06;94750.56;4961185;28;20215;-81
2023/12/08 06:27:01;;;;;;;4.90;4.27;;;;;;;3.38;87.81;94751.56;4969820;28;20184;-80
2023/12/08 06:29:27;;;;;;;5.73;4.40;;;;;;;3.29;87.74;94749.75;4977884;28;20195;-79
2023/12/08 06:31:52;;;;;;;5.20;4.40;;;;;;;3.26;88.19;94742.28;4977124;28;20238;-79
2023/12/08 06:34:17;;;;;;;7.07;4.67;;;;;;;3.28;88.15;94750.69;4963524;28;20274;-80
2023/12/08 06:36:44;;;;;;;7.40;4.73;;;;;;;3.26;88.21;94748.22;4961571;28;20246;-79
2023/12/08 06:39:11;;;;;;;5.87;4.67;;;;;;;3.17;88.50;94745.56;4968710;28;20826;-80
2023/12/08 06:41:36;;;;;;;9.67;5.37;;;;;;;3.11;89.25;94739.19;4977946;28;20233;-79
2023/12/08 06:44:02;;;;;;;6.23;5.17;;;;;;;3.18;88.37;94740.34;4976706;28;20207;-79
2023/12/08 06:46:27;;;;;;;8.17;5.03;;;;;;;3.05;89.13;94735.38;4961324;28;20222;-79
2023/12/08 06:48:53;;;;;;;5.63;4.70;;;;;;;3.00;90.38;94737.47;4978005;28;20222;-80
2023/12/08 06:51:18;;;;;;;7.57;5.10;;;;;;;3.03;90.47;94734.69;4977841;28;20194;-79
2023/12/08 06:53:44;;;;;;;6.10;4.67;;;;;;;3.07;90.08;94733.47;4991506;28;20255;-79
2023/12/08 06:56:10;;;;;;;6.83;5.10;;;;;;;3.00;90.76;94729.78;4968773;28;20231;-80
2023/12/08 06:58:35;;;;;;;5.90;4.40;;;;;;;3.05;91.00;94731.97;4976380;28;20226;-79
2023/12/08 07:01:01;;;;;;;5.20;4.13;;;;;;;3.15;91.03;94742.31;4967093;28;20192;-80
2023/12/08 07:03:26;;;;;;;5.73;4.63;;;;;;;3.01;92.68;94730.63;4960395;28;20689;-80
2023/12/08 07:05:51;;;;;;;3.93;3.50;;;;;;;3.07;92.39;94737.81;4977294;28;20188;-80
2023/12/08 07:08:17;;;;;;;4.73;4.13;;;;;;;3.09;92.98;94734.19;4994407;28;20681;-81
2023/12/08 07:10:42;;;;;;;6.17;4.33;;;;;;;3.12;92.30;94741.63;4976925;28;20716;-80
2023/12/08 07:13:07;;;;;;;6.10;4.83;;;;;;;3.23;91.62;94738.22;4983210;28;20669;-81
2023/12/08 07:15:33;;;;;;;5.13;4.33;;;;;;;3.24;92.70;94736.47;4977040;28;20246;-80
2023/12/08 07:17:58;;;;;;;6.33;4.10;;;;;;;3.28;92.74;94735.28;4960286;28;20219;-80
2023/12/08 07:20:24;;;;;;;5.03;3.83;;;;;;;3.35;91.04;94728.69;4969882;28;20198;-79
2023/12/08 07:22:49;;;;;;;6.47;4.60;;;;;;;3.34;91.63;94735.59;4994184;28;20223;-79
2023/12/08 07:25:15;;;;;;;5.97;4.37;;;;;;;3.39;91.42;94740.38;4975438;28;20234;-80
2023/12/08 07:27:41;;;;;;;4.53;3.97;;;;;;;3.38;91.19;94742.13;4991883;28;20191;-80
2023/12/08 07:30:07;;;;;;;5.80;5.00;;;;;;;3.38;91.43;94747.25;4984881;28;20188;-80
2023/12/08 07:32:32;;;;;;;7.57;5.27;;;;;;;3.34;92.74;94747.59;4962109;28;20258;-81
2023/12/08 07:34:57;;;;;;;11.00;7.23;;;;;;;3.34;93.49;94755.31;4973423;28;20270;-80
2023/12/08 07:37:23;;;;;;;8.03;5.63;;;;;;;3.32;94.12;94752.06;4984403;28;20736;-81
2023/12/08 07:39:48;;;;;;;6.20;4.83;;;;;;;3.28;94.57;94750.69;4960180;28;20689;-80
2023/12/08 07:42:14;;;;;;;8.63;5.97;;;;;;;3.47;93.83;94755.16;4959925;28;20196;-80
2023/12/08 07:44:39;;;;;;;10.20;7.90;;;;;;;3.57;92.46;94753.47;4960586;28;20216;-80
2023/12/08 07:47:05;;;;;;;11.90;9.57;;;;;;;3.53;93.31;94755.44;4981398;28;20220;-80
2023/12/08 07:49:30;;;;;;;12.87;10.03;;;;;;;3.62;92.44;94759.88;4976145;28;20192;-80
2023/12/08 07:51:55;;;;;;;11.90;8.77;;;;;;;3.47;93.71;94773.94;4985283;28;20215;-79
2023/12/08 07:54:21;;;;;;;9.40;7.03;;;;;;;3.64;92.57;94783.66;4975573;28;20301;-79
2023/12/08 07:56:46;;;;;;;9.43;5.90;;;;;;;3.64;93.26;94777.72;4975392;28;20254;-79
2023/12/08 07:59:11;;;;;;;8.03;6.53;;;;;;;3.70;92.61;94783.13;4993436;28;20188;-79
2023/12/08 08:01:37;;;;;;;7.20;5.50;;;;;;;3.76;92.31;94775.88;4980827;28;20177;-80
2023/12/08 08:04:02;;;;;;;6.80;5.63;;;;;;;3.82;91.28;94777.97;4991751;28;20216;-79
2023/12/08 08:06:27;;;;;;;7.27;5.43;;;;;;;3.88;91.16;94775.69;4990958;28;20193;-79
2023/12/08 08:08:53;;;;;;;5.73;5.13;;;;;;;3.93;91.07;94788.16;4972898;28;20192;-80
2023/12/08 08:11:19;;;;;;;7.10;5.87;;;;;;;3.92;91.16;94796.81;4958400;28;20283;-79
2023/12/08 08:13:44;;;;;;;6.77;5.47;;;;;;;3.82;92.07;94790.81;4975562;28;20211;-79
2023/12/08 08:16:09;;;;;;;7.10;5.80;;;;;;;3.97;91.47;94800.63;4983904;28;20579;-79
2023/12/08 08:18:35;;;;;;;6.43;5.20;;;;;;;3.93;91.71;94796.69;4975178;28;20632;-80
2023/12/08 08:21:00;;;;;;;6.30;5.10;;;;;;;4.00;91.11;94812.44;4971263;28;20191;-80
2023/12/08 08:23:25;;;;;;;5.77;4.80;;;;;;;3.99;91.30;94813.38;4963121;28;20192;-80
2023/12/08 08:25:51;;;;;;;7.37;5.37;;;;;;;4.02;91.45;94815.69;4975916;28;20180;-81
2023/12/08 08:28:17;;;;;;;7.07;4.77;;;;;;;4.02;91.62;94805.41;4982692;28;20235;-80
2023/12/08 08:30:43;;;;;;;26.10;17.53;;;;;;;3.91;93.05;94816.56;4960872;28;20182;-79
2023/12/08 08:33:09;;;;;;;17.33;11.90;;;;;;;3.93;92.74;94821.56;4955957;28;20195;-79
2023/12/08 08:35:34;;;;;;;15.93;10.00;;;;;;;3.87;92.97;94827.19;4974863;28;20203;-80
2023/12/08 08:37:59;;;;;;;8.43;7.50;;;;;;;3.90;92.57;94829.53;4979459;28;20190;-79
2023/12/08 08:40:25;;;;;;;8.63;6.80;;;;;;;3.94;92.28;94816.28;4983959;28;20180;-80
2023/12/08 08:42:51;;;;;;;9.10;5.93;;;;;;;4.11;91.51;94822.63;4959085;28;20579;-79
2023/12/08 08:45:16;;;;;;;6.63;5.80;;;;;;;4.12;91.03;94829.38;4972309;28;20208;-79
2023/12/08 08:47:42;;;;;;;6.90;5.60;;;;;;;4.07;91.05;94823.84;4992284;28;20183;-80
2023/12/08 08:50:07;;;;;;;5.80;5.20;;;;;;;4.11;91.30;94820.06;4967174;28;20253;-79
2023/12/08 08:52:35;;;;;;;8.93;6.37;;;;;;;4.04;91.50;94826.63;4982468;28;20219;-79
2023/12/08 08:55:01;;;;;;;6.67;5.57;;;;;;;4.16;91.28;94830.78;4974087;28;20235;-79
2023/12/08 08:57:26;;;;;;;11.43;6.57;;;;;;;4.17;91.15;94827.28;4976311;28;20238;-80
2023/12/08 08:59:51;;;;;;;9.90;6.47;;;;;;;4.28;91.53;94828.13;4988981;28;20188;-79
2023/12/08 09:02:17;;;;;;;8.37;5.93;;;;;;;4.40;91.40;94821.97;4974312;28;20200;-79
2023/12/08 09:04:42;;;;;;;8.63;6.07;;;;;;;4.44;91.45;94828.50;4974136;28;20285;-79
2023/12/08 09:07:07;;;;;;;8.03;5.60;;;;;;;4.58;91.52;94833.28;4960122;28;20201;-79
2023/12/08 09:09:33;;;;;;;6.80;5.70;;;;;;;4.57;91.85;94831.66;4974402;28;20203;-80
2023/12/08 09:11:58;;;;;;;6.53;5.17;;;;;;;4.67;91.75;94834.28;4985870;28;20195;-79
2023/12/08 09:14:23;;;;;;;6.33;5.60;;;;;;;4.69;91.55;94830.66;4973779;28;20204;-80
2023/12/08 09:16:49;;;;;;;8.10;7.03;;;;;;;4.72;90.46;94830.38;4957681;28;20262;-79
2023/12/08 09:19:14;;;;;;;6.70;5.30;;;;;;;4.78;91.47;94837.59;4975169;28;20256;-80
2023/12/08 09:21:39;;;;;;;8.83;4.93;;;;;;;4.83;91.39;94830.28;4995670;28;20818;-79
2023/12/08 09:24:05;;;;;;;5.80;5.03;;;;;;;4.91;91.39;94836.53;4974478;28;20211;-79
2023/12/08 09:26:31;;;;;;;7.10;4.70;;;;;;;4.92;92.05;94827.88;4971153;28;20213;-80
2023/12/08 09:28:56;;;;;;;8.47;5.13;;;;;;;5.03;91.57;94830.34;4978288;28;20194;-81
2023/12/08 09:31:21;;;;;;;6.73;5.03;;;;;;;5.00;91.13;94834.00;4982432;28;20191;-80
2023/12/08 09:33:47;;;;;;;7.00;5.60;;;;;;;5.03;91.41;94843.19;4979494;28;20207;-79
2023/12/08 09:36:12;;;;;;;8.60;6.93;;;;;;;5.06;91.38;94843.78;4985605;28;20203;-79
2023/12/08 09:38:38;;;;;;;10.20;8.17;;;;;;;5.13;91.36;94840.69;4977122;28;20205;-80
2023/12/08 09:41:06;;;;;;;10.53;8.13;;;;;;;5.07;90.76;94836.88;4986384;28;20195;-80
2023/12/08 09:43:38;;;;;;;7.63;6.93;;;;;;;5.18;90.90;94836.75;4976578;28;20271;-79
2023/12/08 09:46:03;;;;;;;10.23;7.93;;;;;;;5.09;90.74;94840.09;4962388;28;20556;-81
2023/12/08 09:48:30;;;;;;;8.13;7.10;;;;;;;5.09;90.03;94845.25;4980956;28;20200;-80
2023/12/08 09:50:57;;;;;;;7.90;7.10;;;;;;;5.13;90.75;94846.63;4977700;28;20656;-80
2023/12/08 09:53:22;;;;;;;7.70;6.63;;;;;;;5.09;90.82;94842.69;4966012;28;20662;-80
2023/12/08 09:55:48;;;;;;;7.80;6.10;;;;;;;5.17;90.61;94848.00;4977317;28;20254;-80
2023/12/08 09:58:14;;;;;;;6.60;5.90;;;;;;;5.14;90.78;94845.69;4980450;28;20184;-80
2023/12/08 10:00:40;;;;;;;8.60;6.47;;;;;;;5.11;90.95;94844.19;4977454;28;20191;-80
2023/12/08 10:03:05;;;;;;;8.17;6.50;;;;;;;5.07;90.84;94847.97;4968425;28;20204;-80
2023/12/08 10:05:30;;;;;;;8.27;5.87;;;;;;;5.09;91.41;94840.94;4977000;28;20554;-80
2023/12/08 10:07:57;;;;;;;7.87;6.50;;;;;;;5.19;91.39;94846.09;4973627;28;20219;-80
2023/12/08 10:10:24;;;;;;;7.53;5.70;;;;;;;5.18;90.97;94844.47;4972881;28;20236;-80
2023/12/08 10:12:49;;;;;;;7.87;6.10;;;;;;;5.21;91.07;94844.22;4961212;28;20218;-80
2023/12/08 10:15:16;;;;;;;6.87;5.60;;;;;;;5.22;91.78;94840.69;4976949;28;20211;-80
2023/12/08 10:17:47;;;;;;;6.87;5.13;;;;;;;5.32;92.05;94841.53;4977170;28;20865;-80
2023/12/08 10:20:13;;;;;;;7.37;5.37;;;;;;;5.34;91.81;94836.25;4964691;28;20210;-81
2023/12/08 10:22:51;;;;;;;6.43;5.23;;;;;;;5.45;91.87;94840.47;4977167;28;20199;-80
2023/12/08 10:25:19;;;;;;;6.13;5.13;;;;;;;5.40;92.13;94831.38;4994513;28;20230;-81
2023/12/08 10:27:51;;;;;;;6.47;4.70;;;;;;;5.57;91.56;94826.53;4976643;28;20201;-80
2023/12/08 10:30:17;;;;;;;6.20;4.93;;;;;;;5.73;91.25;94826.78;4990339;28;21109;-80
2023/12/08 10:32:44;;;;;;;7.47;6.40;;;;;;;5.84;91.11;94821.50;4960626;28;20223;-80
2023/12/08 10:35:12;;;;;;;6.43;5.13;;;;;;;5.95;90.54;94816.22;4960985;28;20236;-80
2023/12/08 10:37:41;;;;;;;8.47;5.07;;;;;;;6.04;89.97;94822.34;4976310;28;20187;-80
2023/12/08 10:40:09;;;;;;;5.90;5.27;;;;;;;6.03;90.38;94822.47;4990686;28;20195;-80
2023/12/08 10:42:34;;;;;;;8.90;6.17;;;;;;;6.09;90.02;94817.56;4973882;28;20194;-80
2023/12/08 10:45:00;;;;;;;9.13;7.40;;;;;;;6.19;90.51;94820.16;4964802;28;20275;-81
2023/12/08 10:47:26;;;;;;;18.47;13.90;;;;;;;6.26;90.31;94821.19;4960194;28;20222;-80
2023/12/08 10:49:53;;;;;;;29.47;19.77;;;;;;;6.34;90.43;94817.94;4976872;28;20199;-80
2023/12/08 10:52:19;;;;;;;10.63;9.00;;;;;;;6.40;89.90;94813.03;4976913;28;20570;-80
2023/12/08 10:54:44;;;;;;;8.17;7.27;;;;;;;6.49;88.89;94809.59;4975219;28;20199;-80
2023/12/08 10:57:10;;;;;;;8.90;7.10;;;;;;;6.65;89.52;94811.59;4978009;28;20692;-81
2023/12/08 10:59:39;;;;;;;10.20;8.27;;;;;;;6.77;89.72;94819.97;4960825;28;20198;-80
2023/12/08 11:02:17;;;;;;;11.27;7.73;;;;;;;6.96;88.87;94812.13;4969650;28;20280;-82
2023/12/08 11:04:44;;;;;;;11.27;9.00;;;;;;;7.15;87.80;94811.22;4991267;28;20656;-82
2023/12/08 11:07:12;;;;;;;10.03;8.30;;;;;;;7.18;87.96;94817.88;4975935;28;20254;-82
2023/12/08 11:09:40;;;;;;;8.43;6.53;;;;;;;7.26;87.20;94817.97;4992371;28;20180;-80
2023/12/08 11:12:07;;;;;;;5.87;5.20;;;;;;;7.23;87.21;94821.63;4976976;28;20215;-81
2023/12/08 11:14:47;;;;;;;6.03;5.30;;;;;;;7.27;86.89;94819.59;4976826;28;20286;-82
2023/12/08 11:17:33;;;;;;;5.83;4.80;;;;;;;7.05;86.74;94821.59;4976679;28;20294;-80
2023/12/08 11:19:59;;;;;;;5.67;5.13;;;;;;;7.13;87.14;94820.06;4972878;28;20538;-80
2023/12/08 11:22:24;;;;;;;7.57;4.93;;;;;;;7.09;87.39;94816.97;4977909;28;20191;-79
2023/12/08 11:24:50;;;;;;;8.07;6.30;;;;;;;7.12;87.65;94821.03;4975942;28;20211;-80
2023/12/08 11:27:38;;;;;;;5.87;5.27;;;;;;;7.17;86.72;94821.44;4975616;28;20904;-79
2023/12/08 11:30:24;;;;;;;5.77;5.07;;;;;;;7.15;87.17;94820.72;4974545;28;20674;-79
2023/12/08 11:33:04;;;;;;;8.40;6.07;;;;;;;7.09;86.68;94828.13;4974864;28;20739;-79
2023/12/08 11:35:30;;;;;;;6.10;4.87;;;;;;;7.12;86.62;94824.41;4993421;28;20207;-79